Time;durP1;ratioP1;P1;durP2;ratioP2;P2;SDS_P1;SDS_P2;PMS_P1;PMS_P2;Temp;Humidity;BMP_temperature;BMP_pressure;BME280_temperature;BME280_humidity;BME280_pressure;Samples;Min_cycle;Max_cycle;Signal;HPM_P1;HPM_P2
2023/07/14 00:01:23;;;;;;;11.98;6.63;;;17.00;82.10;;;;;;4865598;29;20049;-95
2023/07/14 00:03:51;;;;;;;11.95;7.28;;;17.00;82.10;;;;;;4865273;29;20045;-96
2023/07/14 00:06:21;;;;;;;13.27;7.10;;;17.00;82.30;;;;;;4865403;29;20053;-95
2023/07/14 00:08:50;;;;;;;12.38;7.60;;;16.80;82.50;;;;;;4865109;29;20581;-95
2023/07/14 00:11:21;;;;;;;11.90;7.43;;;16.80;82.80;;;;;;4865214;29;20063;-96
2023/07/14 00:13:50;;;;;;;14.75;7.82;;;16.70;83.00;;;;;;4865408;29;20511;-94
2023/07/14 00:16:29;;;;;;;12.00;7.13;;;16.70;83.00;;;;;;4865042;29;20504;-95
2023/07/14 00:18:56;;;;;;;11.30;7.10;;;16.70;83.10;;;;;;4880420;29;20428;-95
2023/07/14 00:21:25;;;;;;;18.25;7.82;;;16.60;83.20;;;;;;4865115;29;20132;-95
2023/07/14 00:23:58;;;;;;;12.33;6.80;;;16.60;83.20;;;;;;4865713;29;20056;-95
2023/07/14 00:26:26;;;;;;;11.90;7.90;;;16.60;83.10;;;;;;4866080;29;20473;-95
2023/07/14 00:28:56;;;;;;;11.00;7.10;;;16.60;83.00;;;;;;4866357;29;20074;-95
2023/07/14 00:31:24;;;;;;;10.82;7.13;;;16.60;83.00;;;;;;4865546;29;20060;-96
2023/07/14 00:33:53;;;;;;;11.18;7.30;;;16.70;82.90;;;;;;4865741;29;20086;-96
2023/07/14 00:36:22;;;;;;;12.80;6.60;;;16.70;82.60;;;;;;4866115;29;20041;-96
2023/07/14 00:38:49;;;;;;;11.02;6.78;;;16.80;82.40;;;;;;4865720;29;20093;-95
2023/07/14 00:41:23;;;;;;;11.50;6.65;;;16.80;82.20;;;;;;4868602;29;20045;-96
2023/07/14 00:43:51;;;;;;;10.45;6.88;;;16.70;82.20;;;;;;4865806;29;20464;-95
2023/07/14 00:46:22;;;;;;;11.15;6.55;;;16.70;82.30;;;;;;4865150;29;20049;-96
2023/07/14 00:48:52;;;;;;;11.77;6.53;;;16.70;82.40;;;;;;4864912;29;20049;-94
2023/07/14 00:51:21;;;;;;;11.32;6.65;;;16.60;82.30;;;;;;4880194;29;20055;-94
2023/07/14 00:53:48;;;;;;;13.32;6.75;;;16.60;82.40;;;;;;4879890;29;20049;-95
2023/07/14 00:56:41;;;;;;;11.60;6.03;;;16.60;82.30;;;;;;4864742;29;20109;-94
2023/07/14 00:59:13;;;;;;;10.45;5.85;;;16.70;82.10;;;;;;4865350;29;20101;-94
2023/07/14 01:02:10;;;;;;;11.60;6.80;;;16.70;82.00;;;;;;4865617;29;20121;-95
2023/07/14 01:04:41;;;;;;;10.95;5.85;;;16.70;82.10;;;;;;4865534;29;20045;-94
2023/07/14 01:07:10;;;;;;;11.75;6.20;;;16.60;82.30;;;;;;4865513;29;20530;-96
2023/07/14 01:09:39;;;;;;;11.02;6.82;;;16.50;82.60;;;;;;4865779;29;20084;-96
2023/07/14 01:12:09;;;;;;;10.52;6.22;;;16.50;82.80;;;;;;4864922;29;20507;-95
2023/07/14 01:14:42;;;;;;;10.23;6.60;;;16.50;82.90;;;;;;4865127;29;20056;-95
2023/07/14 01:17:10;;;;;;;10.93;6.63;;;16.40;83.00;;;;;;4864704;29;20095;-94
2023/07/14 01:19:55;;;;;;;11.07;6.95;;;16.40;83.00;;;;;;4864510;29;20530;-95
2023/07/14 01:22:44;;;;;;;10.18;6.30;;;16.40;83.00;;;;;;4864565;29;20048;-96
2023/07/14 01:25:23;;;;;;;12.90;7.32;;;16.40;82.80;;;;;;4864596;29;20076;-95
2023/07/14 01:27:50;;;;;;;10.10;6.07;;;16.30;82.80;;;;;;4864437;29;20057;-95
2023/07/14 01:30:19;;;;;;;11.90;7.03;;;16.30;82.80;;;;;;4880181;29;20077;-95
2023/07/14 01:32:50;;;;;;;10.50;6.38;;;16.30;82.80;;;;;;4881381;29;20049;-96
2023/07/14 01:35:28;;;;;;;11.48;7.25;;;16.30;82.70;;;;;;4864204;29;20465;-95
2023/07/14 01:37:56;;;;;;;11.20;6.80;;;16.30;82.80;;;;;;4879473;29;20091;-95
2023/07/14 01:40:24;;;;;;;12.00;6.13;;;16.40;82.50;;;;;;4864970;29;20048;-95
2023/07/14 01:43:00;;;;;;;10.95;6.68;;;16.50;82.20;;;;;;4880154;29;20049;-95
2023/07/14 01:45:42;;;;;;;11.55;7.20;;;16.50;82.10;;;;;;4865343;29;20053;-94
2023/07/14 01:48:17;;;;;;;11.73;7.28;;;16.60;81.60;;;;;;4882999;29;20079;-94
2023/07/14 01:50:50;;;;;;;12.63;7.43;;;16.60;81.40;;;;;;4883295;29;20598;-95
2023/07/14 01:53:42;;;;;;;11.53;6.47;;;16.50;81.50;;;;;;4867424;29;20068;-95
2023/07/14 01:56:17;;;;;;;11.93;7.05;;;16.50;81.70;;;;;;4867594;29;20140;-94
2023/07/14 01:59:08;;;;;;;12.55;6.55;;;16.50;81.50;;;;;;4882880;29;20140;-94
2023/07/14 02:01:41;;;;;;;10.75;6.03;;;16.50;81.30;;;;;;4883157;29;20068;-94
2023/07/14 02:04:19;;;;;;;12.95;7.00;;;16.50;81.10;;;;;;4883378;29;20049;-93
2023/07/14 02:06:46;;;;;;;10.60;6.30;;;16.50;81.20;;;;;;4882929;29;20049;-94
2023/07/14 02:09:23;;;;;;;9.48;6.15;;;16.50;81.00;;;;;;4867263;29;20065;-94
2023/07/14 02:12:04;;;;;;;10.25;6.85;;;16.50;81.00;;;;;;4882763;29;20084;-95
2023/07/14 02:14:40;;;;;;;8.93;5.80;;;16.60;80.40;;;;;;4883178;29;20503;-96
2023/07/14 02:17:22;;;;;;;8.75;5.68;;;16.60;80.60;;;;;;4883019;29;20055;-96
2023/07/14 02:19:51;;;;;;;10.50;6.33;;;16.50;80.80;;;;;;4867394;29;20131;-94
2023/07/14 02:22:19;;;;;;;12.93;6.53;;;16.30;81.10;;;;;;4882676;29;20052;-95
2023/07/14 02:24:48;;;;;;;12.10;5.50;;;16.30;81.30;;;;;;4882921;29;20057;-95
2023/07/14 02:27:15;;;;;;;11.77;5.97;;;16.20;81.40;;;;;;4882960;29;20052;-96
2023/07/14 02:29:42;;;;;;;10.13;5.70;;;16.20;81.60;;;;;;4867588;29;20053;-96
2023/07/14 02:32:12;;;;;;;10.47;6.23;;;16.10;81.80;;;;;;4867330;29;20416;-96
2023/07/14 02:34:44;;;;;;;8.02;4.95;;;16.10;81.80;;;;;;4867344;29;20397;-94
2023/07/14 02:40:22;;;;;;;8.68;5.80;;;16.20;81.70;;;;;;4883618;29;20149;-96
2023/07/14 02:42:52;;;;;;;9.35;5.47;;;16.10;81.70;;;;;;4868855;29;20057;-95
2023/07/14 02:45:20;;;;;;;10.13;6.00;;;16.00;82.20;;;;;;4867971;29;20068;-95
2023/07/14 02:47:53;;;;;;;10.32;5.85;;;15.90;82.70;;;;;;4868994;29;20077;-95
2023/07/14 02:50:22;;;;;;;12.85;5.55;;;15.70;83.00;;;;;;4867182;29;20049;-96
2023/07/14 02:52:49;;;;;;;9.20;5.00;;;15.60;83.30;;;;;;4866732;29;20552;-95
2023/07/14 02:55:16;;;;;;;9.85;5.72;;;15.70;83.30;;;;;;4867234;29;20075;-94
2023/07/14 02:57:43;;;;;;;7.60;5.00;;;15.70;83.30;;;;;;4865899;29;20045;-94
2023/07/14 03:00:11;;;;;;;9.32;5.88;;;15.60;83.40;;;;;;4867004;29;20048;-95
2023/07/14 03:02:39;;;;;;;7.55;4.53;;;15.60;83.30;;;;;;4866847;29;20045;-95
2023/07/14 03:05:11;;;;;;;8.38;5.32;;;15.70;83.10;;;;;;4867158;29;20057;-96
2023/07/14 03:07:39;;;;;;;9.55;5.75;;;15.80;83.10;;;;;;4866431;29;20057;-95
2023/07/14 03:10:08;;;;;;;9.03;5.57;;;15.70;83.30;;;;;;4866340;29;20069;-94
2023/07/14 03:12:36;;;;;;;9.70;5.90;;;15.80;83.30;;;;;;4866556;29;20423;-94
2023/07/14 03:15:05;;;;;;;8.60;5.35;;;15.80;83.30;;;;;;4866122;29;20049;-94
2023/07/14 03:17:33;;;;;;;11.65;5.93;;;15.70;83.40;;;;;;4884287;29;20053;-94
2023/07/14 03:20:06;;;;;;;9.02;5.85;;;15.70;83.50;;;;;;4869196;29;20041;-96
2023/07/14 03:22:36;;;;;;;9.43;6.13;;;15.60;83.70;;;;;;4867564;29;20053;-95
2023/07/14 03:25:07;;;;;;;9.80;6.47;;;15.60;83.80;;;;;;4882403;29;20049;-95
2023/07/14 03:27:34;;;;;;;12.38;6.72;;;15.70;83.70;;;;;;4866502;29;20065;-95
2023/07/14 03:30:01;;;;;;;10.00;6.30;;;15.60;83.80;;;;;;4866236;29;20057;-94
2023/07/14 03:32:31;;;;;;;9.48;6.10;;;15.60;84.00;;;;;;4866883;29;20464;-93
2023/07/14 03:34:59;;;;;;;10.30;6.50;;;15.50;84.20;;;;;;4867166;29;20045;-93
2023/07/14 03:37:29;;;;;;;10.38;6.32;;;15.50;84.30;;;;;;4884824;29;20049;-92
2023/07/14 03:39:56;;;;;;;10.00;6.40;;;15.50;84.50;;;;;;4865806;29;20060;-93
2023/07/14 03:42:23;;;;;;;9.85;6.10;;;15.50;84.60;;;;;;4865637;29;20052;-92
2023/07/14 03:44:50;;;;;;;9.57;5.97;;;15.50;84.60;;;;;;4866150;29;20140;-92
2023/07/14 03:47:18;;;;;;;9.43;6.73;;;15.60;84.60;;;;;;4865431;29;20045;-93
2023/07/14 03:49:48;;;;;;;9.48;5.90;;;15.60;84.40;;;;;;4866055;29;20045;-94
2023/07/14 03:52:15;;;;;;;10.05;5.45;;;15.70;84.40;;;;;;4865707;29;20095;-93
2023/07/14 03:54:44;;;;;;;9.57;5.43;;;15.70;84.20;;;;;;4865676;29;20540;-95
2023/07/14 03:57:12;;;;;;;10.07;6.20;;;15.70;84.20;;;;;;4866007;29;20041;-93
2023/07/14 03:59:39;;;;;;;8.80;5.47;;;15.80;84.10;;;;;;4866560;29;20049;-95
2023/07/14 04:02:06;;;;;;;8.85;5.70;;;15.80;84.00;;;;;;4865093;29;20434;-95
2023/07/14 04:08:36;;;;;;;9.85;5.10;;;15.70;84.00;;;;;;4881797;29;20551;-92
2023/07/14 04:11:04;;;;;;;11.00;5.38;;;15.60;84.00;;;;;;4865272;29;20140;-92
2023/07/14 04:13:34;;;;;;;8.40;5.13;;;15.60;84.30;;;;;;4865070;29;20415;-92
2023/07/14 04:16:05;;;;;;;9.52;4.90;;;15.70;84.30;;;;;;4864917;29;20496;-92
2023/07/14 04:18:32;;;;;;;8.88;5.57;;;15.70;84.00;;;;;;4865130;29;20492;-92
2023/07/14 04:21:10;;;;;;;8.35;5.47;;;15.80;84.10;;;;;;4880583;29;20120;-91
2023/07/14 04:23:39;;;;;;;8.25;4.85;;;15.80;84.20;;;;;;4880628;29;20056;-92
2023/07/14 04:26:08;;;;;;;8.17;5.23;;;15.90;84.10;;;;;;4864973;29;20085;-91
2023/07/14 04:28:36;;;;;;;7.95;4.55;;;16.00;83.80;;;;;;4864891;29;20568;-91
2023/07/14 04:31:04;;;;;;;8.68;4.50;;;16.00;83.60;;;;;;4865188;29;20500;-92
2023/07/14 04:33:32;;;;;;;7.28;4.00;;;16.00;83.30;;;;;;4865124;29;20144;-92
2023/07/14 04:35:59;;;;;;;7.40;3.83;;;16.00;83.20;;;;;;4864811;29;20416;-92
2023/07/14 04:38:27;;;;;;;7.73;4.33;;;16.10;83.40;;;;;;4880085;29;20056;-92
2023/07/14 04:40:54;;;;;;;8.45;3.83;;;16.10;83.20;;;;;;4864865;29;20091;-92
2023/07/14 04:43:21;;;;;;;9.52;4.32;;;16.20;83.00;;;;;;4864512;29;20049;-92
2023/07/14 04:45:53;;;;;;;6.72;3.47;;;16.20;82.70;;;;;;4865302;29;20049;-93
2023/07/14 04:48:23;;;;;;;7.05;3.53;;;16.30;82.80;;;;;;4864885;29;20056;-92
2023/07/14 04:50:51;;;;;;;7.67;3.67;;;16.30;82.50;;;;;;4865112;29;20088;-92
2023/07/14 04:53:19;;;;;;;8.13;3.75;;;16.50;82.50;;;;;;4864733;29;20076;-92
2023/07/14 04:55:48;;;;;;;6.80;3.33;;;16.50;82.00;;;;;;4864542;29;20092;-92
2023/07/14 04:58:17;;;;;;;7.28;3.40;;;16.60;82.10;;;;;;4864725;29;20085;-92
2023/07/14 05:00:46;;;;;;;7.03;3.20;;;16.70;82.00;;;;;;4864666;29;20140;-93
2023/07/14 05:03:15;;;;;;;8.00;3.73;;;16.70;81.80;;;;;;4865218;29;20048;-91
2023/07/14 05:05:42;;;;;;;7.45;3.60;;;16.80;81.70;;;;;;4864585;29;20132;-92
2023/07/14 05:08:09;;;;;;;7.20;3.38;;;16.80;81.60;;;;;;4880101;29;20053;-92
2023/07/14 05:10:38;;;;;;;6.55;3.70;;;16.90;81.60;;;;;;4864752;29;20048;-93
2023/07/14 05:13:06;;;;;;;8.68;3.53;;;16.90;81.10;;;;;;4864996;29;20491;-92
2023/07/14 05:15:33;;;;;;;7.97;3.57;;;17.00;81.30;;;;;;4865269;29;20534;-93
2023/07/14 05:18:01;;;;;;;5.82;3.13;;;17.10;81.50;;;;;;4864576;29;20072;-93
2023/07/14 05:20:29;;;;;;;6.88;3.20;;;17.10;80.90;;;;;;4865740;29;20041;-92
2023/07/14 05:22:59;;;;;;;6.80;2.90;;;17.10;80.80;;;;;;4868976;29;20045;-92
2023/07/14 05:25:28;;;;;;;7.00;3.60;;;17.20;80.80;;;;;;4870190;29;20139;-93
2023/07/14 05:27:56;;;;;;;6.53;3.23;;;17.20;80.40;;;;;;4871529;29;20060;-92
2023/07/14 05:30:23;;;;;;;6.68;3.15;;;17.30;80.10;;;;;;4871092;29;20460;-95
2023/07/14 05:32:54;;;;;;;6.78;2.95;;;17.40;80.30;;;;;;4872025;29;20068;-96
2023/07/14 05:35:22;;;;;;;5.55;3.10;;;17.50;79.90;;;;;;4871011;29;20052;-96
2023/07/14 05:37:49;;;;;;;5.68;2.83;;;17.80;79.30;;;;;;4872492;29;20159;-96
2023/07/14 05:40:17;;;;;;;6.37;2.63;;;17.90;79.40;;;;;;4871194;29;20064;-96
2023/07/14 05:42:45;;;;;;;6.82;2.90;;;18.00;78.50;;;;;;4871260;29;20503;-96
2023/07/14 05:45:13;;;;;;;5.03;2.50;;;18.10;78.50;;;;;;4871135;29;20056;-96
2023/07/14 05:47:46;;;;;;;6.82;2.95;;;18.10;78.30;;;;;;4870964;29;20045;-96
2023/07/14 05:50:17;;;;;;;7.18;3.00;;;18.20;78.00;;;;;;4886622;29;20055;-96
2023/07/14 05:52:46;;;;;;;6.17;3.20;;;18.20;78.30;;;;;;4870942;29;20052;-96
2023/07/14 05:55:14;;;;;;;6.32;2.85;;;18.30;78.30;;;;;;4870890;29;20070;-95
2023/07/14 05:57:50;;;;;;;7.43;3.38;;;18.50;78.30;;;;;;4875576;29;20055;-95
2023/07/14 06:00:25;;;;;;;5.75;3.30;;;18.70;77.60;;;;;;4878516;29;20044;-93
2023/07/14 06:02:54;;;;;;;6.68;3.63;;;18.90;77.30;;;;;;4895338;29;20079;-96
2023/07/14 06:05:24;;;;;;;6.07;3.10;;;18.90;76.80;;;;;;4880264;29;20072;-96
2023/07/14 06:07:56;;;;;;;6.55;3.30;;;18.90;76.80;;;;;;4875551;29;20052;-91
2023/07/14 06:10:26;;;;;;;5.50;3.10;;;18.90;78.10;;;;;;4870880;29;20053;-92
2023/07/14 06:12:53;;;;;;;6.57;3.00;;;19.00;77.40;;;;;;4870442;29;20052;-92
2023/07/14 06:15:23;;;;;;;7.18;3.20;;;19.00;77.00;;;;;;4870500;29;20048;-92
2023/07/14 06:17:57;;;;;;;6.77;3.07;;;19.10;77.10;;;;;;4871007;29;20144;-91
2023/07/14 06:20:24;;;;;;;5.55;2.90;;;19.20;77.10;;;;;;4870067;29;20507;-91
2023/07/14 06:22:51;;;;;;;7.70;2.85;;;19.50;76.80;;;;;;4870457;29;20049;-91
2023/07/14 06:25:19;;;;;;;6.43;3.35;;;19.60;75.80;;;;;;4869895;29;20059;-91
2023/07/14 06:27:46;;;;;;;7.00;3.00;;;19.80;75.50;;;;;;4869926;29;20050;-93
2023/07/14 06:30:13;;;;;;;6.23;2.87;;;20.00;75.30;;;;;;4869905;29;20053;-94
2023/07/14 06:32:40;;;;;;;6.70;2.70;;;20.20;74.70;;;;;;4871824;29;20049;-93
2023/07/14 06:35:10;;;;;;;7.03;3.20;;;20.40;74.50;;;;;;4885612;29;20045;-91
2023/07/14 06:37:37;;;;;;;6.85;2.97;;;20.60;74.80;;;;;;4870034;29;20044;-91
2023/07/14 06:40:07;;;;;;;5.90;3.00;;;20.60;72.80;;;;;;4885596;29;20499;-92
2023/07/14 06:42:36;;;;;;;7.67;3.37;;;20.60;73.50;;;;;;4875387;29;20064;-95
2023/07/14 06:45:04;;;;;;;6.25;3.03;;;20.60;73.10;;;;;;4874728;29;20049;-93
2023/07/14 06:47:32;;;;;;;6.15;2.78;;;20.70;73.70;;;;;;4872819;29;20048;-94
2023/07/14 06:50:00;;;;;;;7.63;2.92;;;20.70;72.60;;;;;;4872901;29;20074;-91
2023/07/14 06:52:34;;;;;;;7.15;2.70;;;20.80;73.40;;;;;;4870223;29;20072;-93
2023/07/14 06:55:04;;;;;;;6.07;2.77;;;20.90;72.30;;;;;;4870396;29;20044;-93
2023/07/14 06:57:32;;;;;;;6.38;2.50;;;21.10;72.20;;;;;;4869820;29;20510;-93
2023/07/14 07:00:01;;;;;;;5.50;2.50;;;21.40;71.80;;;;;;4870754;29;20052;-93
2023/07/14 07:02:28;;;;;;;7.05;3.10;;;21.50;71.90;;;;;;4870151;29;20139;-94
2023/07/14 07:04:56;;;;;;;10.65;4.50;;;21.70;71.30;;;;;;4870208;29;20052;-92
2023/07/14 07:07:24;;;;;;;7.80;3.00;;;21.80;70.90;;;;;;4869372;29;20491;-91
2023/07/14 07:09:55;;;;;;;15.13;8.63;;;22.00;70.00;;;;;;4869338;29;20139;-94
2023/07/14 07:12:22;;;;;;;15.27;8.27;;;22.10;69.90;;;;;;4869686;29;20527;-93
2023/07/14 07:14:50;;;;;;;11.57;6.15;;;22.30;67.90;;;;;;4871204;29;20053;-95
2023/07/14 07:17:17;;;;;;;14.23;6.70;;;22.60;66.90;;;;;;4870325;29;20049;-94
2023/07/14 07:19:45;;;;;;;12.70;5.40;;;22.80;66.30;;;;;;4870597;29;20486;-94
2023/07/14 07:22:12;;;;;;;12.25;5.85;;;22.90;65.50;;;;;;4870255;29;20108;-94
2023/07/14 07:24:39;;;;;;;11.75;4.72;;;23.00;64.90;;;;;;4871831;29;20052;-94
2023/07/14 07:27:07;;;;;;;9.18;4.40;;;23.10;64.20;;;;;;4872014;29;20056;-94
2023/07/14 07:29:34;;;;;;;9.20;4.00;;;23.10;64.80;;;;;;4870655;29;20048;-94
2023/07/14 07:32:04;;;;;;;10.57;4.17;;;23.10;63.90;;;;;;4870317;29;20139;-95
2023/07/14 07:34:31;;;;;;;9.45;3.30;;;23.30;64.20;;;;;;4870943;29;20156;-94
2023/07/14 07:36:58;;;;;;;9.93;3.20;;;23.30;64.00;;;;;;4870011;29;20041;-94
2023/07/14 07:39:26;;;;;;;12.32;3.60;;;23.30;63.10;;;;;;4870439;29;20044;-94
2023/07/14 07:41:54;;;;;;;9.38;3.53;;;23.30;62.80;;;;;;4870940;29;20456;-94
2023/07/14 07:44:22;;;;;;;8.83;3.57;;;23.30;63.70;;;;;;4869727;29;20049;-94
2023/07/14 07:46:49;;;;;;;8.57;3.70;;;23.30;63.00;;;;;;4871791;29;20499;-95
2023/07/14 07:49:17;;;;;;;11.23;6.00;;;23.50;62.10;;;;;;4888174;29;20056;-95
2023/07/14 07:51:44;;;;;;;12.25;4.65;;;23.60;61.10;;;;;;4872570;29;20052;-94
2023/07/14 07:54:12;;;;;;;8.90;3.33;;;23.80;61.10;;;;;;4871250;29;20147;-95
2023/07/14 07:56:43;;;;;;;7.20;3.70;;;23.90;61.90;;;;;;4873685;29;20044;-94
2023/07/14 07:59:15;;;;;;;8.98;4.40;;;23.90;60.80;;;;;;4873170;29;20503;-94
2023/07/14 08:01:45;;;;;;;8.68;3.20;;;23.80;61.30;;;;;;4888608;29;20049;-94
2023/07/14 08:04:16;;;;;;;8.27;2.65;;;23.90;61.60;;;;;;4875911;29;20135;-95
2023/07/14 08:06:47;;;;;;;5.68;2.40;;;24.00;61.00;;;;;;4873590;29;20054;-95
2023/07/14 08:09:14;;;;;;;8.73;2.47;;;24.10;61.10;;;;;;4871265;29;20056;-94
2023/07/14 08:11:41;;;;;;;8.70;3.25;;;24.20;60.20;;;;;;4873200;29;20063;-95
2023/07/14 08:14:15;;;;;;;7.35;2.65;;;24.30;60.00;;;;;;4872472;29;20146;-95
2023/07/14 08:16:43;;;;;;;5.93;2.58;;;24.30;58.60;;;;;;4873206;29;20064;-95
2023/07/14 08:19:13;;;;;;;6.93;2.45;;;24.50;59.40;;;;;;4887112;29;20044;-95
2023/07/14 08:21:41;;;;;;;7.83;2.53;;;24.70;58.20;;;;;;4873486;29;20060;-95
2023/07/14 08:24:12;;;;;;;9.43;3.15;;;24.70;58.50;;;;;;4875580;29;20048;-94
2023/07/14 08:26:41;;;;;;;5.88;2.55;;;24.70;58.10;;;;;;4875603;29;20587;-95
2023/07/14 08:29:09;;;;;;;8.15;3.05;;;24.70;58.40;;;;;;4874907;29;20076;-94
2023/07/14 08:31:38;;;;;;;7.72;3.60;;;24.80;57.30;;;;;;4875843;29;20056;-95
2023/07/14 08:34:08;;;;;;;13.03;3.20;;;24.90;57.30;;;;;;4878271;29;20059;-95
2023/07/14 08:36:38;;;;;;;8.43;3.33;;;25.00;58.50;;;;;;4876230;29;20053;-95
2023/07/14 08:39:06;;;;;;;8.45;3.33;;;24.90;56.20;;;;;;4875705;29;20049;-96
2023/07/14 08:41:41;;;;;;;7.85;2.63;;;24.90;56.10;;;;;;4875304;29;20052;-95
2023/07/14 08:44:58;;;;;;;6.70;2.67;;;25.00;57.10;;;;;;4895862;29;20040;-96
2023/07/14 08:47:32;;;;;;;6.17;2.20;;;25.00;54.90;;;;;;4865129;29;20056;-95
2023/07/14 08:50:09;;;;;;;9.40;2.67;;;24.90;55.20;;;;;;4873004;29;20499;-94
2023/07/14 08:52:40;;;;;;;6.55;2.05;;;24.80;55.90;;;;;;4875629;29;20087;-95
2023/07/14 08:55:26;;;;;;;6.88;2.75;;;25.00;55.70;;;;;;4879444;29;20056;-96
2023/07/14 08:58:05;;;;;;;7.85;2.80;;;25.10;57.20;;;;;;4882260;29;20049;-95
2023/07/14 09:00:38;;;;;;;7.57;2.70;;;25.30;57.00;;;;;;4879481;29;20086;-96
2023/07/14 09:03:35;;;;;;;12.05;3.13;;;25.20;56.90;;;;;;4875761;29;20091;-95
2023/07/14 09:06:25;;;;;;;8.55;2.95;;;25.00;58.20;;;;;;4875091;29;20052;-95
2023/07/14 09:08:53;;;;;;;9.10;2.90;;;24.90;59.60;;;;;;4893341;29;20060;-95
2023/07/14 09:11:40;;;;;;;7.70;2.60;;;25.10;57.50;;;;;;4881241;29;20052;-95
2023/07/14 09:14:31;;;;;;;8.87;3.00;;;25.30;57.20;;;;;;4879198;29;20053;-95
2023/07/14 09:17:20;;;;;;;7.50;2.33;;;25.40;55.10;;;;;;4878052;29;20048;-95
2023/07/14 09:20:11;;;;;;;8.90;2.75;;;25.50;55.10;;;;;;4899443;29;20053;-95
2023/07/14 09:23:17;;;;;;;8.85;2.40;;;25.60;57.50;;;;;;4885061;29;20044;-96
2023/07/14 09:26:13;;;;;;;5.38;2.20;;;25.60;55.10;;;;;;4894992;29;20053;-96
2023/07/14 09:28:50;;;;;;;6.90;2.50;;;25.70;56.60;;;;;;4879992;29;20052;-95
2023/07/14 09:31:38;;;;;;;7.47;2.00;;;25.80;54.10;;;;;;4875194;29;20053;-95
2023/07/14 09:34:35;;;;;;;7.07;2.10;;;25.80;52.80;;;;;;4873577;29;20056;-95
2023/07/14 09:37:34;;;;;;;7.30;1.98;;;25.70;54.20;;;;;;4873121;29;20093;-94
2023/07/14 09:40:18;;;;;;;5.97;2.08;;;25.80;53.30;;;;;;4863240;29;20049;-94
2023/07/14 09:42:51;;;;;;;6.73;2.10;;;25.70;52.60;;;;;;4871717;29;20107;-94
2023/07/14 09:45:21;;;;;;;5.47;2.30;;;25.80;52.70;;;;;;4874122;29;20059;-94
2023/07/14 09:48:03;;;;;;;6.80;2.33;;;25.90;52.10;;;;;;4874694;29;20045;-94
2023/07/14 09:50:36;;;;;;;6.28;2.22;;;26.00;51.10;;;;;;4874982;29;20056;-95
2023/07/14 09:53:06;;;;;;;7.95;2.25;;;26.00;51.70;;;;;;4874999;29;20076;-94
2023/07/14 09:56:13;;;;;;;5.53;2.00;;;26.10;51.60;;;;;;4873651;29;20087;-95
2023/07/14 09:58:52;;;;;;;7.32;1.85;;;26.10;50.10;;;;;;4857537;29;20045;-94
2023/07/14 10:01:19;;;;;;;7.68;2.45;;;26.20;49.80;;;;;;4872243;29;20056;-94
2023/07/14 10:03:52;;;;;;;5.30;1.73;;;26.40;49.50;;;;;;4870545;29;20515;-94
2023/07/14 10:06:28;;;;;;;4.63;1.73;;;26.40;48.80;;;;;;4884601;29;20140;-95
2023/07/14 10:08:57;;;;;;;5.53;2.20;;;26.30;48.00;;;;;;4869439;29;20064;-94
2023/07/14 10:11:30;;;;;;;5.47;2.60;;;26.40;47.20;;;;;;4875066;29;20049;-94
2023/07/14 10:14:07;;;;;;;5.35;2.25;;;26.60;47.60;;;;;;4873920;29;20045;-95
2023/07/14 10:16:41;;;;;;;6.63;2.30;;;26.60;44.70;;;;;;4873692;29;20061;-95
2023/07/14 10:19:16;;;;;;;5.95;2.42;;;26.60;45.90;;;;;;4871518;29;20457;-95
2023/07/14 10:21:55;;;;;;;5.13;2.23;;;26.70;45.60;;;;;;4873449;29;20108;-95
2023/07/14 10:24:24;;;;;;;4.93;1.67;;;26.80;45.60;;;;;;4869018;29;20049;-94
2023/07/14 10:26:57;;;;;;;5.78;1.77;;;26.60;43.30;;;;;;4872614;29;20064;-94
2023/07/14 10:29:29;;;;;;;5.70;1.75;;;26.80;44.10;;;;;;4871948;29;20129;-95
2023/07/14 10:32:11;;;;;;;4.03;1.40;;;27.10;47.00;;;;;;4872323;29;20060;-94
2023/07/14 10:34:50;;;;;;;4.60;1.50;;;27.20;43.10;;;;;;4871901;29;20147;-95
2023/07/14 10:37:28;;;;;;;5.65;1.92;;;27.20;42.30;;;;;;4874070;29;20049;-95
2023/07/14 10:40:01;;;;;;;4.28;1.60;;;27.20;42.00;;;;;;4873838;29;20045;-95
2023/07/14 10:42:32;;;;;;;4.78;1.58;;;27.20;43.70;;;;;;4869586;29;20085;-95
2023/07/14 10:45:01;;;;;;;3.90;1.40;;;27.10;42.90;;;;;;4868668;29;20068;-94
2023/07/14 10:47:38;;;;;;;4.27;1.47;;;26.80;42.90;;;;;;4867714;29;20139;-95
2023/07/14 10:50:20;;;;;;;6.47;1.48;;;26.70;43.10;;;;;;4867328;29;20072;-94
2023/07/14 10:52:53;;;;;;;4.95;1.67;;;26.60;43.40;;;;;;4868576;29;20069;-94
2023/07/14 10:55:28;;;;;;;3.88;1.35;;;26.60;43.90;;;;;;4872137;29;20057;-95
2023/07/14 10:58:00;;;;;;;4.72;1.50;;;26.80;43.90;;;;;;4870775;29;20072;-94
2023/07/14 11:00:42;;;;;;;3.87;1.30;;;26.90;44.60;;;;;;4869138;29;20415;-93
2023/07/14 11:03:21;;;;;;;4.15;1.30;;;26.90;43.60;;;;;;4868871;29;20080;-94
2023/07/14 11:06:11;;;;;;;4.90;1.50;;;27.10;42.10;;;;;;4882821;29;20049;-94
2023/07/14 11:08:38;;;;;;;5.20;1.60;;;27.00;43.10;;;;;;4869174;29;20534;-94
2023/07/14 11:11:11;;;;;;;4.25;1.33;;;27.20;43.40;;;;;;4871437;29;20508;-95
2023/07/14 11:13:44;;;;;;;5.87;1.60;;;27.50;41.20;;;;;;4867680;29;20063;-93
2023/07/14 11:16:29;;;;;;;3.30;1.30;;;27.40;40.20;;;;;;4869680;29;20053;-94
2023/07/14 11:19:18;;;;;;;5.35;1.75;;;27.30;44.20;;;;;;4884502;29;20116;-95
2023/07/14 11:22:00;;;;;;;5.22;2.10;;;27.30;44.90;;;;;;4869228;29;20076;-95
2023/07/14 11:24:59;;;;;;;4.57;1.50;;;27.50;45.30;;;;;;4872136;29;20060;-94
2023/07/14 11:27:37;;;;;;;5.03;1.73;;;27.70;46.90;;;;;;4870033;29;20511;-95
2023/07/14 11:30:29;;;;;;;7.30;1.88;;;28.00;45.50;;;;;;4869092;29;20187;-95
2023/07/14 11:33:19;;;;;;;6.32;1.90;;;28.10;42.70;;;;;;4870145;29;20072;-94
2023/07/14 11:36:01;;;;;;;7.78;2.38;;;28.10;45.90;;;;;;4870023;29;20053;-94
2023/07/14 11:38:31;;;;;;;4.63;1.80;;;28.10;45.80;;;;;;4869810;29;20496;-95
2023/07/14 11:41:00;;;;;;;5.40;1.73;;;28.10;43.10;;;;;;4871301;29;20055;-94
2023/07/14 11:43:29;;;;;;;4.78;1.50;;;28.10;42.50;;;;;;4870361;29;20049;-94
2023/07/14 11:46:09;;;;;;;6.68;1.60;;;27.90;38.90;;;;;;4868051;29;20045;-94
2023/07/14 11:48:45;;;;;;;7.03;2.28;;;27.90;40.80;;;;;;4870232;29;20124;-94
2023/07/14 11:51:18;;;;;;;7.70;2.05;;;28.10;40.80;;;;;;4869395;29;20056;-95
2023/07/14 11:54:05;;;;;;;6.57;2.17;;;28.20;43.50;;;;;;4871275;29;20535;-94
2023/07/14 11:56:39;;;;;;;6.93;2.47;;;28.30;43.90;;;;;;4868820;29;20049;-95
2023/07/14 11:59:22;;;;;;;8.75;2.30;;;28.20;43.00;;;;;;4868405;29;20060;-95
2023/07/14 12:01:56;;;;;;;5.75;1.98;;;28.40;42.10;;;;;;4868574;29;20045;-94
2023/07/14 12:04:33;;;;;;;8.88;2.33;;;28.40;43.30;;;;;;4866365;29;20045;-95
2023/07/14 12:07:22;;;;;;;7.80;2.57;;;28.30;43.60;;;;;;4867974;29;20053;-94
2023/07/14 12:10:00;;;;;;;6.32;2.13;;;28.40;44.70;;;;;;4871440;29;20053;-94
2023/07/14 12:12:32;;;;;;;5.35;1.98;;;28.50;42.90;;;;;;4886316;29;20057;-95
2023/07/14 12:15:00;;;;;;;8.07;2.05;;;28.50;43.70;;;;;;4871779;29;20049;-94
2023/07/14 12:17:36;;;;;;;8.20;2.40;;;28.60;43.40;;;;;;4869082;29;20048;-94
2023/07/14 12:20:26;;;;;;;8.43;2.60;;;28.60;39.20;;;;;;4870373;29;20079;-95
2023/07/14 12:23:11;;;;;;;6.20;1.52;;;28.60;41.40;;;;;;4874889;29;20621;-94
2023/07/14 12:25:44;;;;;;;6.07;1.50;;;28.60;39.50;;;;;;4869710;29;20080;-94
2023/07/14 12:28:26;;;;;;;5.50;1.42;;;28.40;39.70;;;;;;4869783;29;20057;-93
2023/07/14 12:30:54;;;;;;;7.57;1.80;;;28.30;38.60;;;;;;4868767;29;20101;-95
2023/07/14 12:33:24;;;;;;;8.10;1.70;;;28.30;39.40;;;;;;4869813;29;20086;-95
2023/07/14 12:35:51;;;;;;;9.80;1.60;;;28.60;42.20;;;;;;4872742;29;20053;-95
2023/07/14 12:38:21;;;;;;;5.68;1.48;;;28.80;38.40;;;;;;4875516;29;20045;-95
2023/07/14 12:40:52;;;;;;;6.55;1.65;;;28.90;39.20;;;;;;4874778;29;20045;-95
2023/07/14 12:43:59;;;;;;;3.80;1.38;;;29.10;39.40;;;;;;4873080;29;20057;-94
2023/07/14 12:46:35;;;;;;;4.53;1.43;;;29.30;41.00;;;;;;4831483;29;20089;-95
2023/07/14 12:49:22;;;;;;;4.40;1.52;;;29.00;39.40;;;;;;4878239;29;20563;-95
2023/07/14 12:51:50;;;;;;;8.25;1.52;;;28.70;42.00;;;;;;4852451;29;20053;-95
2023/07/14 12:54:24;;;;;;;7.70;1.80;;;28.60;41.60;;;;;;4867297;29;20534;-95
2023/07/14 12:56:54;;;;;;;4.45;1.48;;;28.70;40.80;;;;;;4866339;29;20057;-94
2023/07/14 12:59:22;;;;;;;5.70;1.53;;;28.90;40.00;;;;;;4867803;29;20045;-94
2023/07/14 13:01:51;;;;;;;5.32;1.50;;;28.80;41.80;;;;;;4870763;29;20076;-94
2023/07/14 13:04:21;;;;;;;4.22;1.48;;;28.90;43.60;;;;;;4868288;29;20049;-95
2023/07/14 13:06:54;;;;;;;3.90;1.48;;;29.00;42.20;;;;;;4853931;29;20234;-94
2023/07/14 13:09:27;;;;;;;3.72;1.50;;;29.10;42.90;;;;;;4870850;29;20065;-96
2023/07/14 13:11:55;;;;;;;7.90;1.63;;;29.30;41.30;;;;;;4871832;29;20492;-94
2023/07/14 13:14:28;;;;;;;3.92;1.45;;;29.30;40.10;;;;;;4871418;29;20057;-95
2023/07/14 13:16:57;;;;;;;5.15;1.42;;;29.40;40.00;;;;;;4870700;29;20124;-95
2023/07/14 13:19:45;;;;;;;3.97;1.50;;;29.50;40.50;;;;;;4872057;29;20102;-94